Terminal Aerodrome Forecast
Issued by NWS

Home | Current Version | Previous Version | Text Only | Print | Product List | Glossary On
Versions: 1 2 3 4 5 6 7 8 9 10 11 12 13 14 15 16 17 18 19 20 21 22 23 24
000
FTUS41 KGYX 272320
TAFHIE
TAF
KHIE 272320Z 2800/2824 27005KT P6SM FEW050
     FM280700 00000KT 1/2SM FG OVC001
     FM281100 35002KT P6SM BKN045 BKN100=

USA.gov is the U.S. government's official web portal to all federal, state and local government web resources and services.